createdAt,value
2024-01-10T00:00:49.996Z,8.53
2024-01-10T00:03:19.865Z,11.60
2024-01-10T00:05:50.046Z,11.47
2024-01-10T00:08:23.362Z,7.13
2024-01-10T00:10:53.275Z,11.50
2024-01-10T00:13:26.213Z,7.50
2024-01-10T00:15:57.055Z,9.33
2024-01-10T00:18:29.897Z,6.73
2024-01-10T00:20:59.932Z,8.53
2024-01-10T00:23:32.423Z,6.37
2024-01-10T00:26:03.037Z,6.23
2024-01-10T00:28:36.420Z,7.57
2024-01-10T00:31:07.073Z,6.27
2024-01-10T00:33:47.687Z,9.57
2024-01-10T00:36:17.959Z,5.07
2024-01-10T00:38:51.371Z,8.93
2024-01-10T00:41:21.802Z,7.60
2024-01-10T00:43:51.915Z,7.83
2024-01-10T00:46:23.333Z,7.67
2024-01-10T00:48:56.483Z,13.03
2024-01-10T00:51:32.363Z,8.37
2024-01-10T00:54:07.755Z,9.63
2024-01-10T00:56:37.777Z,7.80
2024-01-10T00:59:07.891Z,7.37
2024-01-10T01:01:38.270Z,4.57
2024-01-10T01:04:10.142Z,6.17
2024-01-10T01:06:49.290Z,6.90
2024-01-10T01:09:23.176Z,5.43
2024-01-10T01:11:53.629Z,6.73
2024-01-10T01:14:23.587Z,7.70
2024-01-10T01:16:53.604Z,6.17
2024-01-10T01:19:23.618Z,9.73
2024-01-10T01:21:56.589Z,6.80
2024-01-10T01:24:32.468Z,6.70
2024-01-10T01:27:02.339Z,9.63
2024-01-10T01:29:33.257Z,6.63
2024-01-10T01:32:03.281Z,9.13
2024-01-10T01:34:41.945Z,5.97
2024-01-10T01:37:12.208Z,6.23
2024-01-10T01:39:44.911Z,7.17
2024-01-10T01:42:18.258Z,9.07
2024-01-10T01:44:48.625Z,10.00
2024-01-10T01:47:19.752Z,10.03
2024-01-10T01:49:53.460Z,10.50
2024-01-10T01:52:24.004Z,8.07
2024-01-10T01:54:56.471Z,5.90
2024-01-10T01:57:26.498Z,6.80
2024-01-10T01:59:59.128Z,8.37
2024-01-10T02:02:34.653Z,7.40
2024-01-10T02:05:05.610Z,8.23
2024-01-10T02:07:35.526Z,14.07
2024-01-10T02:10:08.996Z,6.70
2024-01-10T02:12:39.133Z,9.83
2024-01-10T02:15:10.057Z,6.97
2024-01-10T02:17:43.585Z,10.43
2024-01-10T02:20:15.267Z,6.60
2024-01-10T02:22:48.376Z,6.07
2024-01-10T02:25:23.092Z,9.60
2024-01-10T02:27:54.159Z,6.37
2024-01-10T02:30:30.169Z,7.27
2024-01-10T02:33:00.173Z,8.33
2024-01-10T02:35:34.306Z,5.47
2024-01-10T02:38:04.541Z,6.50
2024-01-10T02:40:41.963Z,8.07
2024-01-10T02:43:12.762Z,8.30
2024-01-10T02:45:43.043Z,7.60
2024-01-10T02:48:13.256Z,9.37
2024-01-10T02:50:45.193Z,9.60
2024-01-10T02:53:15.253Z,6.80
2024-01-10T02:55:49.466Z,8.20
2024-01-10T02:58:20.204Z,10.23
2024-01-10T03:00:53.772Z,6.53
2024-01-10T03:03:23.656Z,7.13
2024-01-10T03:06:01.716Z,9.00
2024-01-10T03:08:32.435Z,4.30
2024-01-10T03:11:05.141Z,8.87
2024-01-10T03:13:41.365Z,6.70
2024-01-10T03:16:14.520Z,9.80
2024-01-10T03:18:45.237Z,8.10
2024-01-10T03:21:26.682Z,8.07
2024-01-10T03:23:57.885Z,8.97
2024-01-10T03:26:31.993Z,3.80
2024-01-10T03:29:02.848Z,4.53
2024-01-10T03:31:35.202Z,7.40
2024-01-10T03:34:05.808Z,9.53
2024-01-10T03:36:39.305Z,9.17
2024-01-10T03:39:10.598Z,7.33
2024-01-10T03:41:43.162Z,8.80
2024-01-10T03:44:13.779Z,10.00
2024-01-10T03:46:44.401Z,6.63
2024-01-10T03:49:14.790Z,7.20
2024-01-10T03:51:44.765Z,7.07
2024-01-10T03:54:15.206Z,8.47
2024-01-10T03:56:48.434Z,7.63
2024-01-10T03:59:18.710Z,8.77
2024-01-10T04:01:49.756Z,10.60
2024-01-10T04:04:23.792Z,9.90
2024-01-10T04:06:53.697Z,8.67
2024-01-10T04:09:23.678Z,8.20
2024-01-10T04:11:56.181Z,7.20
2024-01-10T04:14:29.792Z,8.20
2024-01-10T04:17:00.472Z,9.67
2024-01-10T04:19:30.390Z,8.47
2024-01-10T04:22:02.850Z,8.73
2024-01-10T04:24:33.201Z,11.07
2024-01-10T04:27:09.304Z,8.17
2024-01-10T04:29:43.740Z,8.20
2024-01-10T04:32:16.750Z,9.80
2024-01-10T04:34:46.998Z,8.13
2024-01-10T04:37:17.197Z,7.73
2024-01-10T04:39:49.242Z,11.10
2024-01-10T04:42:22.100Z,8.30
2024-01-10T04:44:52.176Z,7.47
2024-01-10T04:47:22.728Z,5.63
2024-01-10T04:49:52.793Z,9.53
2024-01-10T04:52:23.373Z,6.53
2024-01-10T04:54:56.102Z,6.97
2024-01-10T04:57:28.586Z,5.10
2024-01-10T04:59:59.175Z,5.40
2024-01-10T05:02:29.790Z,8.47
2024-01-10T05:05:10.576Z,7.80
2024-01-10T05:07:41.573Z,6.17
2024-01-10T05:10:11.900Z,10.10
2024-01-10T05:12:46.109Z,5.83
2024-01-10T05:15:18.297Z,10.03
2024-01-10T05:17:48.323Z,10.57
2024-01-10T05:20:18.346Z,9.37
2024-01-10T05:22:48.362Z,8.90
2024-01-10T05:25:19.794Z,7.57
2024-01-10T05:27:52.386Z,5.57
2024-01-10T05:30:23.153Z,7.77
2024-01-10T05:32:54.008Z,7.73
2024-01-10T05:35:26.015Z,13.67
2024-01-10T05:37:56.146Z,10.70
2024-01-10T05:40:26.030Z,10.33
2024-01-10T05:42:58.579Z,5.87
2024-01-10T05:45:29.372Z,6.97
2024-01-10T05:47:59.591Z,10.87
2024-01-10T05:50:29.606Z,5.20
2024-01-10T05:52:59.859Z,8.87
2024-01-10T05:55:29.859Z,7.63
2024-01-10T05:58:02.288Z,3.50
2024-01-10T06:00:34.840Z,9.07
2024-01-10T06:03:04.862Z,4.07
2024-01-10T06:05:37.728Z,13.73
2024-01-10T06:08:08.368Z,9.60
2024-01-10T06:10:38.872Z,9.77
2024-01-10T06:13:11.460Z,11.07
2024-01-10T06:15:41.340Z,9.13
2024-01-10T06:18:11.388Z,10.47
2024-01-10T06:20:41.573Z,10.93
2024-01-10T06:23:11.520Z,8.67
2024-01-10T06:25:41.416Z,9.27
2024-01-10T06:28:13.941Z,9.73
2024-01-10T06:30:46.598Z,8.43
2024-01-10T06:33:16.702Z,4.97
2024-01-10T06:35:46.745Z,5.10
2024-01-10T06:38:18.367Z,10.33
2024-01-10T06:40:49.031Z,11.57
2024-01-10T06:43:21.821Z,8.83
2024-01-10T06:45:52.288Z,10.60
2024-01-10T06:48:22.236Z,8.90
2024-01-10T06:50:52.092Z,11.27
2024-01-10T06:53:22.035Z,12.27
2024-01-10T06:55:52.306Z,12.07
2024-01-10T06:58:24.885Z,8.23
2024-01-10T07:00:55.386Z,9.70
2024-01-10T07:03:25.397Z,5.70
2024-01-10T07:05:55.289Z,12.37
2024-01-10T07:08:25.279Z,6.60
2024-01-10T07:10:57.095Z,8.83
2024-01-10T07:13:29.729Z,6.10
2024-01-10T07:15:59.692Z,11.03
2024-01-10T07:18:29.625Z,8.67
2024-01-10T07:20:59.581Z,11.97
2024-01-10T07:23:29.528Z,7.73
2024-01-10T07:26:00.259Z,7.27
2024-01-10T07:28:33.975Z,8.73
2024-01-10T07:31:04.041Z,8.87
2024-01-10T07:33:34.610Z,9.53
2024-01-10T07:36:05.362Z,5.33
2024-01-10T07:38:37.735Z,9.10
2024-01-10T07:41:08.115Z,4.80
2024-01-10T07:43:40.998Z,11.90
2024-01-10T07:46:10.904Z,7.60
2024-01-10T07:48:40.894Z,8.57
2024-01-10T07:51:11.099Z,9.83
2024-01-10T07:53:41.032Z,7.97
2024-01-10T07:56:10.847Z,6.77
2024-01-10T07:58:43.482Z,8.37
2024-01-10T08:01:14.121Z,8.40
2024-01-10T08:03:44.119Z,15.63
2024-01-10T08:06:20.851Z,6.77
2024-01-10T08:08:57.320Z,8.43
2024-01-10T08:11:27.539Z,11.10
2024-01-10T08:14:00.059Z,11.50
2024-01-10T08:16:30.008Z,15.07
2024-01-10T08:19:00.738Z,7.67
2024-01-10T08:21:30.745Z,14.80
2024-01-10T08:24:01.031Z,9.97
2024-01-10T08:26:31.314Z,12.97
2024-01-10T08:29:04.016Z,10.07
2024-01-10T08:31:33.958Z,12.97
2024-01-10T08:34:04.712Z,11.27
2024-01-10T08:36:34.660Z,8.37
2024-01-10T08:39:07.757Z,12.80
2024-01-10T08:41:44.406Z,11.23
2024-01-10T08:44:17.621Z,10.93
2024-01-10T08:46:52.376Z,14.70
2024-01-10T08:49:22.546Z,8.47
2024-01-10T08:51:54.665Z,16.07
2024-01-10T08:54:25.971Z,14.33
2024-01-10T08:56:56.071Z,16.90
2024-01-10T08:59:30.417Z,11.53
2024-01-10T09:02:00.365Z,7.07
2024-01-10T09:04:30.333Z,11.50
2024-01-10T09:06:57.688Z,11.53
2024-01-10T09:09:29.135Z,6.27
2024-01-10T09:11:59.070Z,14.17
2024-01-10T09:14:32.114Z,8.03
2024-01-10T09:17:04.137Z,14.93
2024-01-10T09:19:34.698Z,16.70
2024-01-10T09:22:12.366Z,12.73
2024-01-10T09:24:47.497Z,16.57
2024-01-10T09:27:17.864Z,9.53
2024-01-10T09:29:58.166Z,14.17
2024-01-10T09:32:28.162Z,11.80
2024-01-10T09:34:58.792Z,15.73
2024-01-10T09:37:28.735Z,19.80
2024-01-10T09:40:14.863Z,10.97
2024-01-10T09:42:51.917Z,23.80
2024-01-10T09:45:26.721Z,13.67
2024-01-10T09:48:01.056Z,16.63
2024-01-10T09:50:37.044Z,18.83
2024-01-10T09:53:10.730Z,15.17
2024-01-10T09:55:41.554Z,13.53
2024-01-10T09:58:12.906Z,16.50
2024-01-10T10:00:45.542Z,14.63
2024-01-10T10:03:18.256Z,14.33
2024-01-10T10:05:49.198Z,22.63
2024-01-10T10:08:23.973Z,14.50
2024-01-10T10:10:54.450Z,13.67
2024-01-10T10:13:31.466Z,13.97
2024-01-10T10:16:08.535Z,13.83
2024-01-10T10:18:38.699Z,16.37
2024-01-10T10:21:14.419Z,18.60
2024-01-10T10:23:45.647Z,19.77
2024-01-10T10:26:21.412Z,16.60
2024-01-10T10:28:52.049Z,17.07
2024-01-10T10:31:24.769Z,19.17
2024-01-10T10:34:02.862Z,18.70
2024-01-10T10:36:34.501Z,13.47
2024-01-10T10:39:05.741Z,20.10
2024-01-10T10:41:36.419Z,19.97
2024-01-10T10:44:14.007Z,16.10
2024-01-10T10:46:52.953Z,12.57
2024-01-10T10:49:33.008Z,19.17
2024-01-10T10:52:06.956Z,19.73
2024-01-10T10:54:39.193Z,16.30
2024-01-10T10:57:10.070Z,19.00
2024-01-10T10:59:41.401Z,30.63
2024-01-10T11:02:14.771Z,20.87
2024-01-10T11:04:45.743Z,18.27
2024-01-10T11:07:16.141Z,23.90
2024-01-10T11:09:48.514Z,17.70
2024-01-10T11:12:39.537Z,16.53
2024-01-10T11:15:25.631Z,23.00
2024-01-10T11:18:14.491Z,18.70
2024-01-10T11:21:00.084Z,19.40
2024-01-10T11:23:45.739Z,16.00
2024-01-10T11:26:25.468Z,19.73
2024-01-10T11:28:55.750Z,20.17
2024-01-10T11:31:33.018Z,21.37
2024-01-10T11:34:06.708Z,18.23
2024-01-10T11:36:36.826Z,25.37
2024-01-10T11:39:11.830Z,19.50
2024-01-10T11:41:44.110Z,25.83
2024-01-10T11:44:38.254Z,20.97
2024-01-10T11:47:09.004Z,15.00
2024-01-10T11:49:41.834Z,22.63
2024-01-10T11:52:13.373Z,21.63
2024-01-10T11:54:46.196Z,27.10
2024-01-10T11:57:24.358Z,21.47
2024-01-10T11:59:55.845Z,17.70
2024-01-10T12:02:27.692Z,15.83
2024-01-10T12:05:01.004Z,18.63
2024-01-10T12:07:34.171Z,19.67
2024-01-10T12:10:04.547Z,18.17
2024-01-10T12:12:34.861Z,21.20
2024-01-10T12:15:04.997Z,19.50
2024-01-10T12:17:34.895Z,18.73
2024-01-10T12:20:08.493Z,26.00
2024-01-10T12:22:38.912Z,20.23
2024-01-10T12:25:08.915Z,24.07
2024-01-10T12:27:39.660Z,25.33
2024-01-10T12:30:17.937Z,20.00
2024-01-10T12:32:54.591Z,21.97
2024-01-10T12:35:27.179Z,19.37
2024-01-10T12:38:00.514Z,30.00
2024-01-10T12:40:30.583Z,27.37
2024-01-10T12:43:06.304Z,21.03
2024-01-10T12:45:36.290Z,19.23
2024-01-10T12:48:09.698Z,18.07
2024-01-10T12:50:42.276Z,20.83
2024-01-10T12:53:12.341Z,16.87
2024-01-10T12:55:42.296Z,20.70
2024-01-10T12:58:12.277Z,21.50
2024-01-10T13:00:42.547Z,21.50
2024-01-10T13:03:12.417Z,25.70
2024-01-10T13:05:45.022Z,25.17
2024-01-10T13:08:15.101Z,14.80
2024-01-10T13:10:45.997Z,20.23
2024-01-10T13:13:16.346Z,24.30
2024-01-10T13:15:46.713Z,22.80
2024-01-10T13:18:17.307Z,25.53
2024-01-10T13:21:00.913Z,26.23
2024-01-10T13:23:30.891Z,19.43
2024-01-10T13:26:01.027Z,21.33
2024-01-10T13:28:31.637Z,18.53
2024-01-10T13:31:01.732Z,21.27
2024-01-10T13:33:46.797Z,21.40
2024-01-10T13:36:20.974Z,22.37
2024-01-10T13:38:51.209Z,22.87
2024-01-10T13:41:21.143Z,22.70
2024-01-10T13:43:51.643Z,19.90
2024-01-10T13:46:24.218Z,18.33
2024-01-10T13:48:54.660Z,23.10
2024-01-10T13:51:31.832Z,20.93
2024-01-10T13:54:04.643Z,21.20
2024-01-10T13:56:37.985Z,22.30
2024-01-10T13:59:11.071Z,25.17
2024-01-10T14:01:41.532Z,22.17
2024-01-10T14:04:11.448Z,21.43
2024-01-10T14:06:44.313Z,25.03
2024-01-10T14:09:19.128Z,23.47
2024-01-10T14:11:50.109Z,33.93
2024-01-10T14:14:27.080Z,20.47
2024-01-10T14:17:18.936Z,23.10
2024-01-10T14:19:49.646Z,21.97
2024-01-10T14:22:30.359Z,21.30
2024-01-10T14:25:03.370Z,20.63
2024-01-10T14:27:33.534Z,26.07
2024-01-10T14:30:04.843Z,24.77
2024-01-10T14:32:35.177Z,25.03
2024-01-10T14:35:02.854Z,26.17
2024-01-10T14:37:37.796Z,20.77
2024-01-10T14:40:08.795Z,23.30
2024-01-10T14:42:38.697Z,21.60
2024-01-10T14:45:09.812Z,22.67
2024-01-10T14:47:42.754Z,21.93
2024-01-10T14:50:13.559Z,26.07
2024-01-10T14:52:46.822Z,25.47
2024-01-10T14:55:19.637Z,24.73
2024-01-10T14:57:49.544Z,22.43
2024-01-10T15:00:20.679Z,23.50
2024-01-10T15:02:50.736Z,24.80
2024-01-10T15:05:20.731Z,22.53
2024-01-10T15:07:53.726Z,21.17
2024-01-10T15:10:23.806Z,24.03
2024-01-10T15:12:53.662Z,25.10
2024-01-10T15:15:23.658Z,26.90
2024-01-10T15:17:53.499Z,28.47
2024-01-10T15:20:23.796Z,23.07
2024-01-10T15:22:57.364Z,26.57
2024-01-10T15:25:28.092Z,20.63
2024-01-10T15:27:58.258Z,21.03
2024-01-10T15:30:37.651Z,28.90
2024-01-10T15:33:14.440Z,25.47
2024-01-10T15:35:44.500Z,21.47
2024-01-10T15:38:17.106Z,24.43
2024-01-10T15:40:47.066Z,25.20
2024-01-10T15:43:19.886Z,29.27
2024-01-10T15:45:54.648Z,26.03
2024-01-10T15:48:25.034Z,21.60
2024-01-10T15:50:54.900Z,25.27
2024-01-10T15:53:27.373Z,26.00
2024-01-10T15:55:57.559Z,23.07
2024-01-10T15:58:29.543Z,23.53
2024-01-10T16:00:59.556Z,21.97
2024-01-10T16:03:31.696Z,27.63
2024-01-10T16:06:01.815Z,21.20
2024-01-10T16:08:34.620Z,25.10
2024-01-10T16:11:04.488Z,20.07
2024-01-10T16:13:34.419Z,25.27
2024-01-10T16:16:05.772Z,25.50
2024-01-10T16:18:35.787Z,30.67
2024-01-10T16:21:21.187Z,22.03
2024-01-10T16:23:58.780Z,24.47
2024-01-10T16:26:33.763Z,27.53
2024-01-10T16:29:05.076Z,19.00
2024-01-10T16:31:35.046Z,26.10
2024-01-10T16:34:05.218Z,20.73
2024-01-10T16:36:35.075Z,25.60
2024-01-10T16:39:07.569Z,22.67
2024-01-10T16:41:37.484Z,20.33
2024-01-10T16:44:07.870Z,22.77
2024-01-10T16:46:37.832Z,27.03
2024-01-10T16:49:07.810Z,24.33
2024-01-10T16:51:39.054Z,21.40
2024-01-10T16:54:11.668Z,24.53
2024-01-10T16:56:41.715Z,21.93
2024-01-10T16:59:11.597Z,17.50
2024-01-10T17:01:41.467Z,24.20
2024-01-10T17:04:11.463Z,22.13
2024-01-10T17:06:42.834Z,30.07
2024-01-10T17:09:17.791Z,31.00
2024-01-10T17:11:47.682Z,23.10
2024-01-10T17:14:17.741Z,29.27
2024-01-10T17:16:47.672Z,18.77
2024-01-10T17:19:17.793Z,23.50
2024-01-10T17:21:47.673Z,31.03
2024-01-10T17:24:20.265Z,33.37
2024-01-10T17:26:50.239Z,19.00
2024-01-10T17:29:22.745Z,20.83
2024-01-10T17:31:52.655Z,20.63
2024-01-10T17:34:23.246Z,24.30
2024-01-10T17:36:53.150Z,24.70
2024-01-10T17:39:26.432Z,26.50
2024-01-10T17:41:56.339Z,22.97
2024-01-10T17:44:26.363Z,19.57
2024-01-10T17:46:56.521Z,21.73
2024-01-10T17:49:26.468Z,22.20
2024-01-10T17:51:56.449Z,18.63
2024-01-10T17:54:28.996Z,20.50
2024-01-10T17:56:59.617Z,20.70
2024-01-10T17:59:29.636Z,23.30
2024-01-10T18:02:00.247Z,25.23
2024-01-10T18:04:31.015Z,22.93
2024-01-10T18:07:02.132Z,18.57
2024-01-10T18:09:34.639Z,22.63
2024-01-10T18:12:06.406Z,28.40
2024-01-10T18:14:36.512Z,23.60
2024-01-10T18:17:06.823Z,22.13
2024-01-10T18:19:37.046Z,24.30
2024-01-10T18:22:07.373Z,24.13
2024-01-10T18:24:40.053Z,20.93
2024-01-10T18:27:09.906Z,23.23
2024-01-10T18:29:39.847Z,28.47
2024-01-10T18:32:09.875Z,26.47
2024-01-10T18:34:39.807Z,24.13
2024-01-10T18:37:10.211Z,24.17
2024-01-10T18:39:42.804Z,24.50
2024-01-10T18:42:13.209Z,21.23
2024-01-10T18:44:43.127Z,25.10
2024-01-10T18:47:13.471Z,20.67
2024-01-10T18:49:43.422Z,24.23
2024-01-10T18:52:13.742Z,15.50
2024-01-10T18:54:46.727Z,24.60
2024-01-10T18:57:18.294Z,21.33
2024-01-10T18:59:48.326Z,24.57
2024-01-10T19:02:18.363Z,20.60
2024-01-10T19:04:48.310Z,22.53
2024-01-10T19:07:18.254Z,24.90
2024-01-10T19:09:50.802Z,26.20
2024-01-10T19:12:20.866Z,28.20
2024-01-10T19:14:50.709Z,24.33
2024-01-10T19:17:22.372Z,20.90
2024-01-10T19:19:58.523Z,24.37
2024-01-10T19:22:36.227Z,23.17
2024-01-10T19:25:12.587Z,29.20
2024-01-10T19:27:42.551Z,36.13
2024-01-10T19:30:22.279Z,24.63
2024-01-10T19:32:52.897Z,23.70
2024-01-10T19:35:23.400Z,24.77
2024-01-10T19:37:53.448Z,24.07
2024-01-10T19:40:25.958Z,22.20
2024-01-10T19:42:55.930Z,25.13
2024-01-10T19:45:25.882Z,20.53
2024-01-10T19:47:55.851Z,27.97
2024-01-10T19:50:26.107Z,20.07
2024-01-10T19:52:57.719Z,29.57
2024-01-10T19:55:30.276Z,23.57
2024-01-10T19:58:00.198Z,30.03
2024-01-10T20:00:30.069Z,28.30
2024-01-10T20:03:02.168Z,23.20
2024-01-10T20:05:32.288Z,22.43
2024-01-10T20:08:02.385Z,26.00
2024-01-10T20:10:37.389Z,23.47
2024-01-10T20:13:08.347Z,21.43
2024-01-10T20:15:38.704Z,27.03
2024-01-10T20:18:08.961Z,23.47
2024-01-10T20:20:39.060Z,29.43
2024-01-10T20:23:09.157Z,27.13
2024-01-10T20:25:49.470Z,27.43
2024-01-10T20:28:20.428Z,25.10
2024-01-10T20:30:50.515Z,28.37
2024-01-10T20:33:21.074Z,30.63
2024-01-10T20:35:52.398Z,24.47
2024-01-10T20:38:23.149Z,24.80
2024-01-10T20:40:58.609Z,27.90
2024-01-10T20:43:32.974Z,24.37
2024-01-10T20:46:03.805Z,25.97
2024-01-10T20:48:36.954Z,27.40
2024-01-10T20:51:07.047Z,24.17
2024-01-10T20:53:38.960Z,29.70
2024-01-10T20:56:12.628Z,27.37
2024-01-10T20:58:42.694Z,28.57
2024-01-10T21:01:14.253Z,33.67
2024-01-10T21:03:44.271Z,28.87
2024-01-10T21:06:16.242Z,24.63
2024-01-10T21:08:49.779Z,27.37
2024-01-10T21:11:31.390Z,32.50
2024-01-10T21:14:08.079Z,33.97
2024-01-10T21:16:38.288Z,30.63
2024-01-10T21:19:08.558Z,30.00
2024-01-10T21:21:39.754Z,28.33
2024-01-10T21:24:10.156Z,29.67
2024-01-10T21:26:44.721Z,26.77
2024-01-10T21:29:17.818Z,30.10
2024-01-10T21:31:54.640Z,29.17
2024-01-10T21:34:25.220Z,32.53
2024-01-10T21:36:58.488Z,31.70
2024-01-10T21:39:28.446Z,26.33
2024-01-10T21:42:00.979Z,26.37
2024-01-10T21:44:31.051Z,31.50
2024-01-10T21:47:02.689Z,29.13
2024-01-10T21:49:32.864Z,28.20
2024-01-10T21:52:02.689Z,34.90
2024-01-10T21:54:34.103Z,26.80
2024-01-10T21:57:06.818Z,21.57
2024-01-10T21:59:36.732Z,29.23
2024-01-10T22:02:07.131Z,32.83
2024-01-10T22:04:37.171Z,26.97
2024-01-10T22:07:07.462Z,25.60
2024-01-10T22:09:37.375Z,34.20
2024-01-10T22:12:11.187Z,30.23
2024-01-10T22:14:41.215Z,34.80
2024-01-10T22:17:11.109Z,27.70
2024-01-10T22:19:41.014Z,34.57
2024-01-10T22:22:10.966Z,33.53
2024-01-10T22:24:40.975Z,25.87
2024-01-10T22:27:13.555Z,33.77
2024-01-10T22:29:43.524Z,29.33
2024-01-10T22:32:18.302Z,28.33
2024-01-10T22:34:49.928Z,32.10
2024-01-10T22:37:19.885Z,27.90
2024-01-10T22:39:49.926Z,32.80
2024-01-10T22:42:22.478Z,35.93
2024-01-10T22:45:01.312Z,31.17
2024-01-10T22:47:31.532Z,33.00
2024-01-10T22:50:01.452Z,25.07
2024-01-10T22:52:31.441Z,35.63
2024-01-10T22:55:02.354Z,31.90
2024-01-10T22:57:34.893Z,27.80
2024-01-10T23:00:09.922Z,31.50
2024-01-10T23:02:39.894Z,30.00
2024-01-10T23:05:11.465Z,30.90
2024-01-10T23:07:41.935Z,39.17
2024-01-10T23:10:24.413Z,32.27
2024-01-10T23:13:00.004Z,32.03
2024-01-10T23:15:32.935Z,33.60
2024-01-10T23:18:06.318Z,35.47
2024-01-10T23:20:37.272Z,36.87
2024-01-10T23:23:07.598Z,31.43
2024-01-10T23:25:37.462Z,26.70
2024-01-10T23:28:10.080Z,37.40
2024-01-10T23:30:39.965Z,31.47
2024-01-10T23:33:09.976Z,31.90
2024-01-10T23:35:47.636Z,29.10
2024-01-10T23:38:19.095Z,31.57
2024-01-10T23:40:49.406Z,30.43
2024-01-10T23:43:27.006Z,28.50
2024-01-10T23:45:58.026Z,30.20
2024-01-10T23:48:28.395Z,31.33
2024-01-10T23:50:58.411Z,31.43
2024-01-10T23:53:28.639Z,27.83
2024-01-10T23:55:58.600Z,38.13
2024-01-10T23:58:31.069Z,32.67
